createdAt,value
2023-04-07T18:19:40.482Z,3.95
2023-04-07T18:22:09.802Z,3.92
2023-04-07T18:24:38.087Z,4.18
2023-04-07T18:27:05.912Z,3.45
2023-04-07T18:29:33.886Z,4.10
2023-04-07T18:32:01.697Z,4.07
2023-04-07T18:34:29.528Z,4.10
2023-04-07T18:36:58.677Z,3.60
2023-04-07T18:39:28.116Z,4.28
2023-04-07T18:41:57.473Z,4.07
2023-04-07T18:44:25.970Z,4.05
2023-04-07T18:46:54.403Z,4.10
2023-04-07T18:49:22.244Z,3.85
2023-04-07T18:51:50.238Z,4.22
2023-04-07T18:54:19.407Z,3.90
2023-04-07T18:56:47.308Z,4.00
2023-04-07T18:59:15.138Z,3.95
2023-04-07T19:01:42.991Z,4.60
2023-04-07T19:04:11.727Z,4.43
2023-04-07T19:06:39.582Z,5.00
2023-04-07T19:09:07.402Z,5.30
2023-04-07T19:11:36.567Z,5.55
2023-04-07T19:14:05.781Z,6.40
2023-04-07T19:16:35.000Z,7.25
2023-04-07T19:19:02.861Z,6.28
2023-04-07T19:21:31.032Z,6.10
2023-04-07T19:23:59.701Z,6.95
2023-04-07T19:26:27.838Z,6.68
2023-04-07T23:16:43.906Z,8.02
2023-04-07T23:19:15.231Z,8.52
2023-04-07T23:21:43.533Z,8.63
2023-04-07T23:24:11.325Z,8.18
2023-04-07T23:26:39.160Z,8.10
2023-04-07T23:29:06.980Z,7.70
2023-04-07T23:31:34.860Z,8.55
2023-04-07T23:34:05.767Z,8.68
2023-04-07T23:36:33.596Z,7.22
2023-04-07T23:39:02.269Z,8.55
2023-04-07T23:41:30.089Z,7.97
2023-04-07T23:43:57.993Z,7.57
2023-04-07T23:46:25.890Z,8.18
2023-04-07T23:48:53.817Z,7.60
